createdAt,value
2018-07-07T00:00:25.615Z,7.90
2018-07-07T00:02:54.051Z,9.53
2018-07-07T00:05:22.490Z,9.10
2018-07-07T00:07:50.924Z,9.43
2018-07-07T00:10:19.373Z,9.50
2018-07-07T00:12:47.786Z,8.20
2018-07-07T00:15:17.863Z,8.20
2018-07-07T00:17:46.850Z,8.60
2018-07-07T00:20:15.838Z,8.50
2018-07-07T00:22:44.387Z,10.00
2018-07-07T00:25:15.159Z,10.10
2018-07-07T00:27:44.355Z,8.30
2018-07-07T00:30:12.805Z,8.87
2018-07-07T00:32:41.258Z,7.87
2018-07-07T00:35:09.819Z,8.80
2018-07-07T00:37:38.304Z,8.20
2018-07-07T00:40:07.339Z,9.20
2018-07-07T00:42:36.165Z,9.43
2018-07-07T00:45:04.687Z,9.30
2018-07-07T00:47:33.221Z,9.00
2018-07-07T00:50:01.759Z,9.57
2018-07-07T00:52:30.518Z,8.20
2018-07-07T00:54:58.970Z,8.17
2018-07-07T00:57:27.398Z,8.73
2018-07-07T00:59:55.825Z,9.77
2018-07-07T01:02:24.616Z,9.30
2018-07-07T01:04:54.234Z,10.33
2018-07-07T01:07:23.309Z,9.20
2018-07-07T01:09:51.814Z,9.60
2018-07-07T01:12:20.279Z,9.23
2018-07-07T01:14:49.268Z,8.87
2018-07-07T01:17:17.418Z,9.60
2018-07-07T01:19:45.914Z,9.53
2018-07-07T01:22:14.926Z,10.30
2018-07-07T01:24:44.150Z,9.97
2018-07-07T01:27:12.610Z,9.63
2018-07-07T01:29:41.896Z,10.80
2018-07-07T01:32:10.683Z,10.20
2018-07-07T01:34:38.984Z,10.13
2018-07-07T01:37:07.908Z,9.70
2018-07-07T01:39:36.329Z,10.03
2018-07-07T01:42:05.006Z,10.10
2018-07-07T01:44:33.466Z,9.33
2018-07-07T01:47:01.911Z,10.43
2018-07-07T01:49:30.371Z,11.37
2018-07-07T01:51:58.809Z,9.17
2018-07-07T01:54:27.237Z,10.30
2018-07-07T01:56:55.715Z,10.30
2018-07-07T01:59:24.259Z,10.63
2018-07-07T02:01:52.364Z,10.43
2018-07-07T02:04:20.843Z,10.75
2018-07-07T02:06:49.314Z,10.50
2018-07-07T02:09:17.754Z,10.77
2018-07-07T02:11:46.207Z,10.00
2018-07-07T02:14:14.644Z,9.83
2018-07-07T02:16:43.207Z,10.83
2018-07-07T02:19:11.675Z,9.33
2018-07-07T02:21:40.100Z,10.83
2018-07-07T02:24:08.534Z,10.50
2018-07-07T02:26:36.958Z,9.50
2018-07-07T02:29:05.379Z,10.40
2018-07-07T02:31:33.915Z,10.23
2018-07-07T02:34:02.322Z,10.40
2018-07-07T02:36:30.794Z,10.30
2018-07-07T02:38:59.214Z,11.40
2018-07-07T02:41:27.646Z,10.23
2018-07-07T02:43:56.074Z,11.43
2018-07-07T02:46:24.347Z,10.03
2018-07-07T02:48:52.679Z,10.10
2018-07-07T02:51:21.143Z,10.80
2018-07-07T02:53:49.581Z,10.37
2018-07-07T02:56:17.990Z,10.20
2018-07-07T02:58:46.620Z,10.10
2018-07-07T03:01:15.037Z,10.83
2018-07-07T03:03:43.541Z,11.50
2018-07-07T03:06:11.991Z,10.73
2018-07-07T03:08:40.432Z,11.10
2018-07-07T03:11:08.866Z,11.13
2018-07-07T03:13:37.298Z,9.80
2018-07-07T03:16:05.807Z,9.87
2018-07-07T03:18:34.225Z,10.13
2018-07-07T03:21:02.671Z,11.00
2018-07-07T03:23:31.072Z,10.07
2018-07-07T03:25:59.535Z,10.17
2018-07-07T03:28:28.319Z,11.53
2018-07-07T03:30:56.764Z,10.80
2018-07-07T03:33:25.184Z,11.70
2018-07-07T03:35:53.640Z,10.17
2018-07-07T03:38:22.053Z,10.60
2018-07-07T03:40:50.489Z,9.37
2018-07-07T03:43:18.906Z,10.07
2018-07-07T03:45:47.312Z,10.23
2018-07-07T03:48:15.727Z,9.30
2018-07-07T03:50:44.545Z,10.73
2018-07-07T03:53:12.994Z,10.70
2018-07-07T03:55:41.409Z,10.83
2018-07-07T03:58:09.861Z,10.40
2018-07-07T04:00:38.289Z,11.30
2018-07-07T04:03:06.703Z,11.30
2018-07-07T04:05:35.129Z,9.60
2018-07-07T04:08:03.564Z,10.90
2018-07-07T04:10:31.988Z,11.13
2018-07-07T04:13:00.397Z,10.40
2018-07-07T04:15:28.834Z,10.30
2018-07-07T04:17:57.248Z,9.20
2018-07-07T04:20:25.674Z,10.17
2018-07-07T04:22:54.086Z,10.60
2018-07-07T04:25:22.502Z,9.70
2018-07-07T04:27:50.935Z,9.40
2018-07-07T04:30:19.352Z,10.77
2018-07-07T04:32:47.760Z,10.37
2018-07-07T04:35:16.170Z,10.57
2018-07-07T04:37:44.581Z,9.40
2018-07-07T04:40:13.019Z,9.70
2018-07-07T04:42:41.485Z,10.20
2018-07-07T04:45:09.906Z,9.47
2018-07-07T04:47:38.319Z,9.47
2018-07-07T04:50:06.829Z,8.90
2018-07-07T04:52:35.249Z,10.00
2018-07-07T04:55:03.698Z,9.70
2018-07-07T04:57:32.109Z,10.00
2018-07-07T05:00:00.547Z,9.93
2018-07-07T05:02:28.958Z,9.10
2018-07-07T05:04:57.406Z,9.50
2018-07-07T05:07:25.853Z,9.70
2018-07-07T05:09:54.276Z,10.00
2018-07-07T05:12:25.160Z,10.63
2018-07-07T05:14:53.785Z,8.83
2018-07-07T05:17:22.231Z,9.80
2018-07-07T05:19:50.636Z,8.50
2018-07-07T05:22:19.045Z,9.13
2018-07-07T05:24:48.341Z,8.47
2018-07-07T05:27:18.089Z,8.20
2018-07-07T05:29:47.388Z,8.20
2018-07-07T05:32:15.839Z,7.97
2018-07-07T05:34:44.241Z,7.90
2018-07-07T05:37:12.681Z,7.33
2018-07-07T05:39:41.097Z,7.60
2018-07-07T05:42:09.506Z,7.23
2018-07-07T05:44:38.946Z,6.77
2018-07-07T05:47:07.369Z,6.90
2018-07-07T05:49:35.826Z,8.07
2018-07-07T05:52:04.294Z,7.40
2018-07-07T05:54:32.746Z,7.60
2018-07-07T05:57:01.174Z,6.97
2018-07-07T05:59:29.787Z,8.13
2018-07-07T06:01:58.697Z,8.60
2018-07-07T06:04:27.126Z,7.97
2018-07-07T06:06:55.709Z,7.90
2018-07-07T06:09:24.130Z,7.20
2018-07-07T06:11:52.525Z,7.17
2018-07-07T06:14:20.964Z,6.27
2018-07-07T06:16:49.357Z,6.73
2018-07-07T06:19:17.753Z,6.63
2018-07-07T06:21:46.158Z,6.70
2018-07-07T06:24:15.023Z,6.63
2018-07-07T06:26:43.466Z,5.70
2018-07-07T06:29:11.862Z,5.97
2018-07-07T06:31:40.290Z,7.20
2018-07-07T06:34:08.693Z,7.47
2018-07-07T06:36:37.114Z,7.20
2018-07-07T06:39:06.435Z,6.33
2018-07-07T06:41:34.905Z,7.20
2018-07-07T06:44:03.541Z,6.47
2018-07-07T06:46:31.963Z,7.20
2018-07-07T06:49:00.474Z,7.13
2018-07-07T06:51:28.916Z,7.10
2018-07-07T06:53:57.505Z,6.23
2018-07-07T06:56:25.794Z,6.63
2018-07-07T06:58:54.705Z,5.70
2018-07-07T07:01:23.118Z,6.10
2018-07-07T07:03:51.506Z,5.50
2018-07-07T07:06:19.954Z,7.00
2018-07-07T07:08:48.369Z,6.30
2018-07-07T07:11:16.827Z,6.00
2018-07-07T07:13:45.225Z,4.30
2018-07-07T07:16:13.645Z,5.10
2018-07-07T07:18:42.048Z,4.80
2018-07-07T07:21:10.474Z,4.70
2018-07-07T07:23:38.909Z,5.60
2018-07-07T07:26:07.485Z,5.23
2018-07-07T07:28:35.728Z,4.70
2018-07-07T07:31:04.149Z,4.63
2018-07-07T07:33:32.601Z,4.00
2018-07-07T07:36:05.293Z,4.30
2018-07-07T07:38:33.717Z,4.17
2018-07-07T07:41:02.168Z,4.03
2018-07-07T07:43:30.565Z,4.43
2018-07-07T07:45:59.010Z,3.67
2018-07-07T07:48:27.434Z,3.80
2018-07-07T07:50:55.881Z,3.37
2018-07-07T07:53:24.297Z,3.40
2018-07-07T07:55:52.859Z,3.43
2018-07-07T07:58:21.246Z,3.23
2018-07-07T08:00:49.678Z,3.47
2018-07-07T08:03:18.111Z,3.30
2018-07-07T08:05:46.527Z,3.27
2018-07-07T08:08:15.524Z,3.70
2018-07-07T08:10:43.962Z,3.40
2018-07-07T08:13:12.357Z,4.87
2018-07-07T08:15:40.757Z,4.47
2018-07-07T08:18:09.181Z,4.60
2018-07-07T08:20:37.586Z,4.53
2018-07-07T08:23:06.042Z,5.20
2018-07-07T08:25:34.437Z,4.60
2018-07-07T08:28:02.902Z,4.27
2018-07-07T08:30:31.291Z,5.13
2018-07-07T08:33:00.541Z,5.47
2018-07-07T08:35:30.214Z,6.13
2018-07-07T08:37:58.659Z,5.20
2018-07-07T08:40:27.090Z,5.37
2018-07-07T08:42:55.522Z,4.73
2018-07-07T08:45:23.646Z,5.13
2018-07-07T08:47:54.273Z,5.87
2018-07-07T08:50:22.755Z,5.37
2018-07-07T08:52:51.154Z,4.90
2018-07-07T08:55:19.564Z,6.50
2018-07-07T08:57:47.665Z,8.40
2018-07-07T09:00:18.042Z,6.13
2018-07-07T09:02:46.482Z,6.80
2018-07-07T09:05:14.882Z,6.43
2018-07-07T09:07:43.317Z,7.67
2018-07-07T09:10:11.758Z,8.40
2018-07-07T09:12:40.178Z,6.73
2018-07-07T09:15:08.606Z,6.27
2018-07-07T09:17:37.048Z,5.27
2018-07-07T09:20:06.577Z,6.00
2018-07-07T09:22:35.039Z,5.23
2018-07-07T09:25:03.510Z,6.77
2018-07-07T09:27:31.994Z,6.33
2018-07-07T09:30:00.724Z,5.63
2018-07-07T09:32:29.175Z,5.10
2018-07-07T09:34:57.702Z,5.07
2018-07-07T09:37:26.541Z,4.50
2018-07-07T09:39:54.955Z,5.80
2018-07-07T09:42:23.073Z,5.40
2018-07-07T09:44:51.508Z,5.40
2018-07-07T09:47:20.107Z,4.33
2018-07-07T09:49:48.616Z,6.10
2018-07-07T09:52:17.026Z,6.17
2018-07-07T09:54:45.438Z,4.37
2018-07-07T09:57:13.870Z,5.10
2018-07-07T09:59:42.307Z,4.80
2018-07-07T10:02:10.726Z,4.67
2018-07-07T10:04:39.145Z,4.00
2018-07-07T10:07:07.578Z,4.13
2018-07-07T10:09:35.965Z,3.33
2018-07-07T10:12:04.382Z,4.60
2018-07-07T10:14:32.786Z,3.87
2018-07-07T10:17:01.206Z,3.30
2018-07-07T10:19:29.605Z,3.97
2018-07-07T10:21:58.026Z,3.60
2018-07-07T10:24:26.438Z,3.90
2018-07-07T10:26:54.821Z,4.17
2018-07-07T10:29:23.225Z,4.70
2018-07-07T10:31:51.641Z,4.87
2018-07-07T10:34:20.074Z,3.50
2018-07-07T10:36:48.473Z,4.00
2018-07-07T10:39:16.580Z,3.43
2018-07-07T10:41:44.990Z,3.57
2018-07-07T10:44:13.414Z,3.20
2018-07-07T10:46:41.806Z,3.10
2018-07-07T10:49:10.206Z,2.90
2018-07-07T10:51:38.640Z,3.50
2018-07-07T10:54:07.054Z,3.70
2018-07-07T10:56:35.459Z,2.80
2018-07-07T10:59:03.914Z,3.30
2018-07-07T11:01:32.315Z,3.57
2018-07-07T11:04:00.788Z,2.73
2018-07-07T11:06:29.209Z,2.60
2018-07-07T11:08:57.613Z,2.93
2018-07-07T11:11:26.038Z,2.70
2018-07-07T11:13:54.453Z,2.80
2018-07-07T11:16:22.561Z,2.60
2018-07-07T11:18:50.953Z,2.20
2018-07-07T11:21:19.366Z,3.20
2018-07-07T11:23:47.813Z,2.60
2018-07-07T11:26:16.241Z,2.40
2018-07-07T11:28:44.658Z,2.67
2018-07-07T11:31:13.062Z,2.30
2018-07-07T11:33:41.498Z,2.60
2018-07-07T11:36:09.891Z,2.30
2018-07-07T11:38:38.330Z,2.37
2018-07-07T11:41:06.982Z,2.53
2018-07-07T11:43:35.473Z,2.00
2018-07-07T11:46:03.923Z,1.70
2018-07-07T11:48:32.374Z,2.33
2018-07-07T11:51:00.792Z,2.37
2018-07-07T11:53:29.193Z,2.27
2018-07-07T11:55:57.582Z,1.77
2018-07-07T11:58:25.980Z,2.60
2018-07-07T12:00:54.397Z,2.73
2018-07-07T12:03:29.366Z,2.10
2018-07-07T12:05:57.793Z,1.90
2018-07-07T12:08:26.271Z,1.77
2018-07-07T12:10:54.623Z,2.00
2018-07-07T12:13:23.038Z,2.30
2018-07-07T12:15:51.468Z,1.70
2018-07-07T12:18:19.882Z,1.67
2018-07-07T12:20:48.289Z,1.77
2018-07-07T12:23:16.723Z,2.20
2018-07-07T12:25:45.155Z,2.33
2018-07-07T12:28:13.561Z,1.87
2018-07-07T12:30:41.974Z,1.70
2018-07-07T12:33:10.401Z,1.60
2018-07-07T12:35:39.830Z,1.87
2018-07-07T12:38:08.862Z,1.67
2018-07-07T12:40:37.306Z,1.80
2018-07-07T12:43:05.759Z,1.50
2018-07-07T12:45:34.190Z,1.90
2018-07-07T12:48:02.618Z,2.20
2018-07-07T12:50:31.049Z,2.30
2018-07-07T12:52:59.477Z,1.77
2018-07-07T12:55:29.448Z,1.67
2018-07-07T12:57:59.926Z,2.00
2018-07-07T13:00:29.794Z,2.00
2018-07-07T13:02:59.666Z,1.93
2018-07-07T13:05:30.270Z,1.70
2018-07-07T13:08:01.129Z,1.97
2018-07-07T13:10:29.637Z,2.37
2018-07-07T13:12:58.035Z,2.07
2018-07-07T13:15:26.468Z,2.03
2018-07-07T13:17:54.894Z,2.13
2018-07-07T13:20:23.361Z,2.83
2018-07-07T13:22:53.870Z,2.40
2018-07-07T13:25:22.290Z,1.93
2018-07-07T13:27:50.717Z,2.30
2018-07-07T13:30:19.162Z,1.47
2018-07-07T13:32:47.610Z,2.37
2018-07-07T13:35:16.014Z,2.00
2018-07-07T13:37:44.429Z,2.40
2018-07-07T13:40:12.921Z,2.20
2018-07-07T13:42:41.319Z,2.17
2018-07-07T13:45:09.739Z,2.97
2018-07-07T13:47:38.153Z,2.80
2018-07-07T13:50:06.669Z,2.10
2018-07-07T13:52:35.086Z,2.23
2018-07-07T13:55:03.532Z,1.80
2018-07-07T13:57:31.954Z,1.87
2018-07-07T14:00:00.370Z,2.13
2018-07-07T14:02:28.782Z,2.10
2018-07-07T14:04:57.192Z,1.90
2018-07-07T14:07:25.617Z,2.03
2018-07-07T14:09:54.042Z,1.97
2018-07-07T14:12:22.882Z,2.00
2018-07-07T14:14:52.139Z,1.93
2018-07-07T14:17:20.638Z,1.83
2018-07-07T14:19:48.997Z,1.80
2018-07-07T14:22:17.401Z,2.00
2018-07-07T14:24:45.830Z,2.03
2018-07-07T14:27:13.953Z,1.50
2018-07-07T14:29:42.398Z,1.87
2018-07-07T14:32:10.784Z,2.27
2018-07-07T14:34:39.181Z,1.70
2018-07-07T14:37:07.630Z,2.40
2018-07-07T14:39:50.578Z,2.13
2018-07-07T14:42:57.309Z,2.50
2018-07-07T14:45:36.529Z,2.00
2018-07-07T14:48:05.631Z,1.90
2018-07-07T14:50:33.800Z,3.47
2018-07-07T14:53:02.189Z,1.77
2018-07-07T14:55:30.622Z,3.20
2018-07-07T14:57:59.108Z,2.73
2018-07-07T15:00:28.655Z,2.10
2018-07-07T15:02:57.783Z,2.00
2018-07-07T15:05:26.200Z,1.83
2018-07-07T15:07:54.871Z,2.20
2018-07-07T15:10:23.334Z,1.83
2018-07-07T15:12:51.732Z,2.00
2018-07-07T15:15:20.687Z,1.93
2018-07-07T15:17:49.085Z,1.93
2018-07-07T15:20:17.489Z,1.70
2018-07-07T15:22:46.035Z,1.97
2018-07-07T15:25:14.318Z,1.80
2018-07-07T15:27:43.135Z,2.63
2018-07-07T15:30:11.561Z,2.53
2018-07-07T15:32:40.598Z,1.90
2018-07-07T15:35:09.023Z,2.30
2018-07-07T15:37:37.422Z,2.40
2018-07-07T15:40:06.294Z,1.93
2018-07-07T15:42:34.451Z,2.13
2018-07-07T15:45:02.895Z,2.33
2018-07-07T15:47:31.312Z,2.30
2018-07-07T15:49:59.738Z,3.23
2018-07-07T15:52:28.167Z,2.90
2018-07-07T15:54:56.310Z,2.83
2018-07-07T15:57:24.715Z,2.60
2018-07-07T15:59:53.126Z,2.97
2018-07-07T16:02:21.541Z,2.60
2018-07-07T16:04:49.925Z,2.70
2018-07-07T16:07:18.326Z,2.73
2018-07-07T16:09:46.770Z,2.97
2018-07-07T16:12:15.181Z,2.83
2018-07-07T16:14:43.607Z,3.17
2018-07-07T16:17:12.010Z,2.37
2018-07-07T16:19:40.448Z,3.40
2018-07-07T16:22:08.900Z,3.00
2018-07-07T16:24:37.265Z,2.70
2018-07-07T16:27:06.173Z,3.00
2018-07-07T16:29:34.600Z,3.07
2018-07-07T16:32:03.006Z,2.73
2018-07-07T16:34:31.419Z,3.10
2018-07-07T16:36:59.846Z,3.10
2018-07-07T16:39:28.290Z,3.43
2018-07-07T16:41:57.258Z,2.90
2018-07-07T16:44:26.135Z,2.97
2018-07-07T16:46:55.001Z,3.00
2018-07-07T16:49:24.572Z,2.80
2018-07-07T16:51:53.421Z,2.63
2018-07-07T16:54:22.518Z,2.90
2018-07-07T16:56:51.563Z,2.50
2018-07-07T16:59:20.006Z,2.30
2018-07-07T17:01:48.619Z,3.03
2018-07-07T17:04:17.082Z,3.00
2018-07-07T17:06:45.509Z,2.87
2018-07-07T17:09:13.959Z,2.57
2018-07-07T17:11:42.434Z,2.47
2018-07-07T17:14:11.282Z,3.03
2018-07-07T17:16:41.405Z,2.70
2018-07-07T17:19:10.637Z,2.77
2018-07-07T17:21:39.326Z,2.53
2018-07-07T17:24:07.785Z,2.63
2018-07-07T17:26:36.286Z,2.50
2018-07-07T17:29:04.714Z,2.03
2018-07-07T17:31:33.157Z,2.57
2018-07-07T17:34:01.594Z,2.13
2018-07-07T17:36:30.057Z,2.20
2018-07-07T17:38:58.904Z,2.40
2018-07-07T17:41:27.419Z,2.13
2018-07-07T17:43:55.857Z,2.33
2018-07-07T17:46:24.346Z,4.60
2018-07-07T17:48:52.900Z,2.23
2018-07-07T17:51:21.398Z,2.17
2018-07-07T17:53:50.221Z,2.03
2018-07-07T17:56:18.754Z,1.90
2018-07-07T17:58:47.190Z,1.90
2018-07-07T18:01:15.818Z,1.50
2018-07-07T18:03:44.375Z,2.10
2018-07-07T18:06:12.783Z,2.37
2018-07-07T18:08:41.527Z,1.87
2018-07-07T18:11:09.933Z,2.00
2018-07-07T18:13:38.333Z,1.87
2018-07-07T18:16:06.795Z,2.10
2018-07-07T18:18:35.187Z,2.10
2018-07-07T18:21:03.644Z,1.87
2018-07-07T18:23:32.444Z,2.47
2018-07-07T18:26:01.686Z,1.80
2018-07-07T18:28:30.997Z,2.40
2018-07-07T18:31:00.181Z,2.43
2018-07-07T18:33:28.808Z,2.73
2018-07-07T18:35:58.074Z,2.30
2018-07-07T18:38:28.165Z,2.47
2018-07-07T18:40:57.965Z,4.50
2018-07-07T18:43:27.533Z,2.27
2018-07-07T18:45:59.357Z,2.73
2018-07-07T18:48:29.205Z,2.23
2018-07-07T18:50:59.360Z,3.60
2018-07-07T18:53:28.786Z,5.60
2018-07-07T18:55:59.560Z,1.87
2018-07-07T18:58:29.065Z,1.73
2018-07-07T19:00:58.521Z,2.50
2018-07-07T19:03:28.606Z,2.23
2018-07-07T19:05:58.179Z,2.83
2018-07-07T19:08:28.656Z,2.23
2018-07-07T19:10:57.945Z,1.80
2018-07-07T19:13:27.487Z,3.03
2018-07-07T19:15:55.956Z,3.23
2018-07-07T19:18:24.721Z,3.00
2018-07-07T19:20:58.813Z,1.83
2018-07-07T19:23:33.103Z,2.27
2018-07-07T19:26:07.020Z,2.33
2018-07-07T19:28:36.614Z,1.83
2018-07-07T19:31:05.897Z,1.70
2018-07-07T19:33:40.494Z,1.90
2018-07-07T19:36:14.551Z,2.63
2018-07-07T19:38:43.302Z,2.10
2018-07-07T19:41:12.054Z,2.30
2018-07-07T19:43:40.784Z,2.77
2018-07-07T19:46:09.660Z,2.37
2018-07-07T19:48:38.472Z,2.60
2018-07-07T19:51:07.260Z,2.03
2018-07-07T19:53:36.153Z,2.10
2018-07-07T19:56:04.975Z,2.33
2018-07-07T19:58:33.958Z,2.10
2018-07-07T20:01:03.627Z,2.50
2018-07-07T20:03:32.731Z,2.30
2018-07-07T20:06:01.488Z,2.70
2018-07-07T20:08:30.291Z,3.07
2018-07-07T20:10:59.307Z,2.50
2018-07-07T20:13:28.098Z,2.40
2018-07-07T20:16:17.876Z,2.07
2018-07-07T20:19:03.155Z,2.23
2018-07-07T20:21:48.360Z,2.67
2018-07-07T20:24:18.988Z,2.43
2018-07-07T20:26:52.848Z,2.90
2018-07-07T20:29:21.502Z,2.43
2018-07-07T20:31:51.494Z,2.60
2018-07-07T20:34:23.891Z,2.43
2018-07-07T20:36:52.985Z,2.60
2018-07-07T20:39:21.975Z,2.50
2018-07-07T20:41:51.604Z,2.60
2018-07-07T20:44:20.639Z,2.37
2018-07-07T20:46:49.713Z,2.70
2018-07-07T20:49:18.539Z,2.43
2018-07-07T20:51:47.317Z,2.50
2018-07-07T20:54:16.121Z,2.63
2018-07-07T20:56:48.297Z,2.60
2018-07-07T20:59:18.313Z,2.60
2018-07-07T21:01:47.127Z,2.63
2018-07-07T21:04:16.876Z,2.87
2018-07-07T21:06:47.592Z,2.87
2018-07-07T21:09:16.335Z,3.27
2018-07-07T21:11:47.697Z,2.80
2018-07-07T21:14:16.514Z,2.27
2018-07-07T21:16:46.658Z,2.60
2018-07-07T21:19:15.296Z,2.10
2018-07-07T21:21:43.752Z,2.70
2018-07-07T21:24:12.251Z,2.83
2018-07-07T21:26:40.739Z,2.80
2018-07-07T21:29:09.308Z,2.90
2018-07-07T21:31:37.959Z,2.27
2018-07-07T21:34:06.508Z,3.30
2018-07-07T21:36:35.040Z,3.07
2018-07-07T21:39:08.443Z,2.90
2018-07-07T21:41:36.930Z,2.63
2018-07-07T21:44:05.714Z,3.53
2018-07-07T21:46:34.148Z,3.13
2018-07-07T21:49:02.575Z,2.80
2018-07-07T21:51:31.042Z,3.00
2018-07-07T21:53:59.567Z,2.60
2018-07-07T21:56:28.136Z,3.10
2018-07-07T21:59:01.927Z,2.83
2018-07-07T22:02:00.666Z,3.03
2018-07-07T22:04:35.120Z,3.10
2018-07-07T22:07:11.297Z,2.83
2018-07-07T22:09:39.957Z,3.00
2018-07-07T22:12:08.443Z,2.83
2018-07-07T22:14:36.926Z,2.97
2018-07-07T22:17:05.405Z,2.50
2018-07-07T22:19:33.831Z,2.33
2018-07-07T22:22:05.308Z,2.70
2018-07-07T22:24:33.846Z,2.67
2018-07-07T22:27:03.481Z,3.07
2018-07-07T22:29:31.961Z,3.07
2018-07-07T22:32:01.579Z,3.23
2018-07-07T22:34:35.428Z,2.87
2018-07-07T22:37:03.858Z,3.30
2018-07-07T22:39:37.456Z,2.80
2018-07-07T22:42:08.043Z,2.27
2018-07-07T22:44:37.052Z,2.30
2018-07-07T22:47:05.601Z,2.83
2018-07-07T22:49:34.131Z,2.87
2018-07-07T22:52:02.575Z,2.87
2018-07-07T22:54:30.998Z,2.73
2018-07-07T22:56:59.393Z,2.43
2018-07-07T22:59:27.814Z,2.33
2018-07-07T23:01:56.225Z,2.40
2018-07-07T23:04:24.737Z,2.87
2018-07-07T23:06:53.303Z,3.30
2018-07-07T23:09:21.778Z,3.10
2018-07-07T23:11:50.233Z,2.93
2018-07-07T23:14:18.744Z,2.13
2018-07-07T23:16:47.201Z,2.53
2018-07-07T23:19:15.647Z,3.00
2018-07-07T23:21:44.148Z,2.90
2018-07-07T23:24:12.584Z,3.13
2018-07-07T23:26:41.047Z,2.73
2018-07-07T23:29:09.475Z,3.07
2018-07-07T23:31:37.951Z,2.30
2018-07-07T23:34:06.418Z,2.30
2018-07-07T23:36:34.896Z,2.70
2018-07-07T23:39:03.870Z,3.27
2018-07-07T23:41:32.381Z,2.83
2018-07-07T23:44:00.795Z,3.60
2018-07-07T23:46:29.250Z,3.47
2018-07-07T23:48:57.661Z,3.43
2018-07-07T23:51:26.244Z,3.50
2018-07-07T23:53:54.668Z,3.50
2018-07-07T23:56:24.194Z,3.30
2018-07-07T23:58:52.745Z,3.00
